sensor_id;sensor_type;location;lat;lon;timestamp;pressure;altitude;pressure_sealevel;temperature;humidity
11542;BME280;5827;49.482;7.716;2023-04-29T00:01:03;98513.66;;;12.84;100.00
11542;BME280;5827;49.482;7.716;2023-04-29T00:03:05;98508.81;;;12.81;100.00
11542;BME280;5827;49.482;7.716;2023-04-29T00:05:07;98515.50;;;12.78;100.00
11542;BME280;5827;49.482;7.716;2023-04-29T00:07:09;98508.28;;;12.89;100.00
11542;BME280;5827;49.482;7.716;2023-04-29T00:09:14;98507.78;;;13.02;100.00
11542;BME280;5827;49.482;7.716;2023-04-29T00:11:15;98505.13;;;13.12;100.00
11542;BME280;5827;49.482;7.716;2023-04-29T00:13:17;98507.28;;;13.15;100.00
11542;BME280;5827;49.482;7.716;2023-04-29T00:15:19;98510.56;;;13.28;100.00
11542;BME280;5827;49.482;7.716;2023-04-29T00:17:21;98511.47;;;12.70;100.00
11542;BME280;5827;49.482;7.716;2023-04-29T00:19:23;98506.72;;;13.13;100.00
11542;BME280;5827;49.482;7.716;2023-04-29T00:21:24;98508.38;;;13.19;100.00
11542;BME280;5827;49.482;7.716;2023-04-29T00:23:26;98506.75;;;13.18;100.00
11542;BME280;5827;49.482;7.716;2023-04-29T00:25:28;98503.25;;;13.13;100.00
11542;BME280;5827;49.482;7.716;2023-04-29T00:27:30;98504.56;;;13.00;100.00
11542;BME280;5827;49.482;7.716;2023-04-29T00:29:31;98505.13;;;13.17;100.00
11542;BME280;5827;49.482;7.716;2023-04-29T00:31:33;98503.53;;;13.21;100.00
11542;BME280;5827;49.482;7.716;2023-04-29T00:33:36;98505.16;;;13.28;100.00
11542;BME280;5827;49.482;7.716;2023-04-29T00:35:37;98504.38;;;13.27;100.00
11542;BME280;5827;49.482;7.716;2023-04-29T00:37:39;98503.25;;;13.18;100.00
11542;BME280;5827;49.482;7.716;2023-04-29T00:39:40;98501.66;;;13.22;100.00
11542;BME280;5827;49.482;7.716;2023-04-29T00:41:42;98502.72;;;13.16;100.00
11542;BME280;5827;49.482;7.716;2023-04-29T00:43:43;98502.44;;;13.12;100.00
11542;BME280;5827;49.482;7.716;2023-04-29T00:45:44;98505.34;;;12.90;100.00
11542;BME280;5827;49.482;7.716;2023-04-29T00:47:46;98507.75;;;12.92;100.00
11542;BME280;5827;49.482;7.716;2023-04-29T00:49:49;98510.44;;;12.87;100.00
11542;BME280;5827;49.482;7.716;2023-04-29T00:51:50;98512.53;;;12.69;100.00
11542;BME280;5827;49.482;7.716;2023-04-29T00:53:52;98510.91;;;12.73;100.00
11542;BME280;5827;49.482;7.716;2023-04-29T00:55:54;98519.25;;;12.72;100.00
11542;BME280;5827;49.482;7.716;2023-04-29T00:57:56;98518.97;;;12.73;100.00
11542;BME280;5827;49.482;7.716;2023-04-29T00:59:57;98523.81;;;12.71;100.00
11542;BME280;5827;49.482;7.716;2023-04-29T01:02:00;98524.63;;;12.72;100.00
11542;BME280;5827;49.482;7.716;2023-04-29T01:04:03;98528.63;;;12.64;100.00
11542;BME280;5827;49.482;7.716;2023-04-29T01:06:12;98528.91;;;12.63;100.00
11542;BME280;5827;49.482;7.716;2023-04-29T01:08:26;98529.69;;;12.58;100.00
11542;BME280;5827;49.482;7.716;2023-04-29T01:10:35;98544.16;;;12.47;100.00
11542;BME280;5827;49.482;7.716;2023-04-29T01:12:44;98533.63;;;12.40;100.00
11542;BME280;5827;49.482;7.716;2023-04-29T01:14:51;98531.75;;;12.41;100.00
11542;BME280;5827;49.482;7.716;2023-04-29T01:16:58;98533.06;;;12.33;100.00
11542;BME280;5827;49.482;7.716;2023-04-29T01:19:04;98531.94;;;12.24;100.00
11542;BME280;5827;49.482;7.716;2023-04-29T01:21:08;98535.44;;;12.25;100.00
11542;BME280;5827;49.482;7.716;2023-04-29T01:23:10;98540.00;;;12.24;100.00
11542;BME280;5827;49.482;7.716;2023-04-29T01:25:13;98538.94;;;12.30;100.00
11542;BME280;5827;49.482;7.716;2023-04-29T01:27:21;98544.28;;;12.25;100.00
11542;BME280;5827;49.482;7.716;2023-04-29T01:29:37;98541.91;;;12.29;100.00
11542;BME280;5827;49.482;7.716;2023-04-29T01:31:45;98548.38;;;12.33;100.00
11542;BME280;5827;49.482;7.716;2023-04-29T01:34:01;98547.28;;;12.29;100.00
11542;BME280;5827;49.482;7.716;2023-04-29T01:36:11;98536.22;;;12.25;100.00
11542;BME280;5827;49.482;7.716;2023-04-29T01:38:22;98538.34;;;12.23;100.00
11542;BME280;5827;49.482;7.716;2023-04-29T01:40:36;98538.22;;;12.03;100.00
11542;BME280;5827;49.482;7.716;2023-04-29T01:42:45;98546.31;;;12.08;100.00
11542;BME280;5827;49.482;7.716;2023-04-29T01:44:48;98539.84;;;12.04;100.00
11542;BME280;5827;49.482;7.716;2023-04-29T01:46:51;98539.03;;;12.03;100.00
11542;BME280;5827;49.482;7.716;2023-04-29T01:48:53;98536.63;;;12.02;100.00
11542;BME280;5827;49.482;7.716;2023-04-29T01:50:54;98536.06;;;12.00;100.00
11542;BME280;5827;49.482;7.716;2023-04-29T01:52:56;98531.25;;;12.02;100.00
11542;BME280;5827;49.482;7.716;2023-04-29T01:54:57;98533.66;;;12.03;100.00
11542;BME280;5827;49.482;7.716;2023-04-29T01:57:00;98533.94;;;12.02;100.00
11542;BME280;5827;49.482;7.716;2023-04-29T01:59:02;98531.25;;;12.02;100.00
11542;BME280;5827;49.482;7.716;2023-04-29T02:01:03;98534.94;;;11.95;100.00
11542;BME280;5827;49.482;7.716;2023-04-29T02:03:06;98544.88;;;11.95;100.00
11542;BME280;5827;49.482;7.716;2023-04-29T02:05:08;98544.53;;;11.86;100.00
11542;BME280;5827;49.482;7.716;2023-04-29T02:07:10;98547.75;;;11.83;100.00
11542;BME280;5827;49.482;7.716;2023-04-29T02:09:11;98539.88;;;11.77;100.00
11542;BME280;5827;49.482;7.716;2023-04-29T02:11:13;98541.25;;;11.79;100.00
11542;BME280;5827;49.482;7.716;2023-04-29T02:13:15;98548.19;;;11.75;100.00
11542;BME280;5827;49.482;7.716;2023-04-29T02:15:17;98534.78;;;11.75;100.00
11542;BME280;5827;49.482;7.716;2023-04-29T02:17:18;98542.56;;;11.77;100.00
11542;BME280;5827;49.482;7.716;2023-04-29T02:19:20;98553.88;;;11.79;100.00
11542;BME280;5827;49.482;7.716;2023-04-29T02:21:21;98556.25;;;11.75;100.00
11542;BME280;5827;49.482;7.716;2023-04-29T02:23:23;98550.56;;;11.71;100.00
11542;BME280;5827;49.482;7.716;2023-04-29T02:25:24;98563.19;;;11.71;100.00
11542;BME280;5827;49.482;7.716;2023-04-29T02:27:26;98553.53;;;11.70;100.00
11542;BME280;5827;49.482;7.716;2023-04-29T02:29:29;98560.16;;;11.62;100.00
11542;BME280;5827;49.482;7.716;2023-04-29T02:31:30;98552.41;;;11.34;100.00
11542;BME280;5827;49.482;7.716;2023-04-29T02:33:32;98548.31;;;11.31;100.00
11542;BME280;5827;49.482;7.716;2023-04-29T02:35:33;98554.84;;;11.40;100.00
11542;BME280;5827;49.482;7.716;2023-04-29T02:37:35;98560.97;;;11.36;100.00
11542;BME280;5827;49.482;7.716;2023-04-29T02:39:36;98555.22;;;11.22;100.00
11542;BME280;5827;49.482;7.716;2023-04-29T02:41:38;98562.25;;;11.28;100.00
11542;BME280;5827;49.482;7.716;2023-04-29T02:43:41;98560.44;;;11.34;100.00
11542;BME280;5827;49.482;7.716;2023-04-29T02:45:45;98560.72;;;11.10;100.00
11542;BME280;5827;49.482;7.716;2023-04-29T02:47:46;98560.28;;;11.18;100.00
11542;BME280;5827;49.482;7.716;2023-04-29T02:49:48;98559.88;;;11.05;100.00
11542;BME280;5827;49.482;7.716;2023-04-29T02:51:49;98560.16;;;11.08;100.00
11542;BME280;5827;49.482;7.716;2023-04-29T02:53:51;98560.16;;;11.08;100.00
11542;BME280;5827;49.482;7.716;2023-04-29T02:55:52;98560.69;;;11.05;100.00
11542;BME280;5827;49.482;7.716;2023-04-29T02:57:54;98559.13;;;10.87;100.00
11542;BME280;5827;49.482;7.716;2023-04-29T02:59:56;98557.94;;;10.56;100.00
11542;BME280;5827;49.482;7.716;2023-04-29T03:01:59;98561.47;;;10.40;100.00
11542;BME280;5827;49.482;7.716;2023-04-29T03:04:01;98557.69;;;10.36;100.00
11542;BME280;5827;49.482;7.716;2023-04-29T03:06:02;98556.38;;;10.60;100.00
11542;BME280;5827;49.482;7.716;2023-04-29T03:08:04;98556.38;;;10.60;100.00
11542;BME280;5827;49.482;7.716;2023-04-29T03:10:06;98555.16;;;10.68;100.00
11542;BME280;5827;49.482;7.716;2023-04-29T03:12:08;98559.03;;;10.77;100.00
11542;BME280;5827;49.482;7.716;2023-04-29T03:14:09;98558.50;;;10.80;100.00
11542;BME280;5827;49.482;7.716;2023-04-29T03:16:11;98558.44;;;10.75;100.00
11542;BME280;5827;49.482;7.716;2023-04-29T03:18:17;98564.06;;;10.74;100.00
11542;BME280;5827;49.482;7.716;2023-04-29T03:20:19;98562.69;;;10.71;100.00
11542;BME280;5827;49.482;7.716;2023-04-29T03:22:20;98564.06;;;10.74;100.00
11542;BME280;5827;49.482;7.716;2023-04-29T03:24:22;98559.50;;;10.74;100.00
11542;BME280;5827;49.482;7.716;2023-04-29T03:26:23;98561.69;;;10.77;100.00
11542;BME280;5827;49.482;7.716;2023-04-29T03:28:25;98566.38;;;10.87;100.00
11542;BME280;5827;49.482;7.716;2023-04-29T03:30:26;98568.66;;;11.00;100.00
11542;BME280;5827;49.482;7.716;2023-04-29T03:32:28;98568.97;;;11.04;100.00
11542;BME280;5827;49.482;7.716;2023-04-29T03:34:30;98578.69;;;11.10;100.00
11542;BME280;5827;49.482;7.716;2023-04-29T03:36:32;98576.88;;;11.15;100.00
11542;BME280;5827;49.482;7.716;2023-04-29T03:38:33;98574.50;;;11.19;100.00
11542;BME280;5827;49.482;7.716;2023-04-29T03:40:35;98572.41;;;11.26;100.00
11542;BME280;5827;49.482;7.716;2023-04-29T03:42:36;98566.06;;;11.32;100.00
11542;BME280;5827;49.482;7.716;2023-04-29T03:44:38;98567.69;;;11.33;100.00
11542;BME280;5827;49.482;7.716;2023-04-29T03:46:39;98577.16;;;11.41;100.00
11542;BME280;5827;49.482;7.716;2023-04-29T03:48:41;98575.06;;;11.48;100.00
11542;BME280;5827;49.482;7.716;2023-04-29T03:50:43;98579.94;;;11.51;100.00
11542;BME280;5827;49.482;7.716;2023-04-29T03:52:45;98582.56;;;11.46;100.00
11542;BME280;5827;49.482;7.716;2023-04-29T03:54:47;98578.56;;;11.49;100.00
11542;BME280;5827;49.482;7.716;2023-04-29T03:56:48;98584.72;;;11.49;100.00
11542;BME280;5827;49.482;7.716;2023-04-29T03:58:50;98589.59;;;11.52;100.00
11542;BME280;5827;49.482;7.716;2023-04-29T04:00:51;98594.06;;;11.41;100.00
11542;BME280;5827;49.482;7.716;2023-04-29T04:02:52;98593.94;;;11.31;100.00
11542;BME280;5827;49.482;7.716;2023-04-29T04:04:54;98595.34;;;11.12;100.00
11542;BME280;5827;49.482;7.716;2023-04-29T04:06:57;98589.75;;;11.13;100.00
11542;BME280;5827;49.482;7.716;2023-04-29T04:08:58;98595.91;;;11.14;100.00
11542;BME280;5827;49.482;7.716;2023-04-29T04:11:00;98598.38;;;11.20;100.00
11542;BME280;5827;49.482;7.716;2023-04-29T04:13:03;98594.63;;;11.22;100.00
11542;BME280;5827;49.482;7.716;2023-04-29T04:15:06;98587.91;;;11.19;100.00
11542;BME280;5827;49.482;7.716;2023-04-29T04:17:07;98592.56;;;11.29;100.00
11542;BME280;5827;49.482;7.716;2023-04-29T04:19:09;98599.06;;;11.33;100.00
11542;BME280;5827;49.482;7.716;2023-04-29T04:21:11;98597.72;;;11.35;100.00
11542;BME280;5827;49.482;7.716;2023-04-29T04:23:14;98605.50;;;11.32;100.00
11542;BME280;5827;49.482;7.716;2023-04-29T04:25:15;98607.91;;;11.33;100.00
11542;BME280;5827;49.482;7.716;2023-04-29T04:27:17;98602.84;;;11.37;100.00
11542;BME280;5827;49.482;7.716;2023-04-29T04:29:18;98607.84;;;11.28;100.00
11542;BME280;5827;49.482;7.716;2023-04-29T04:31:20;98613.53;;;11.32;100.00
11542;BME280;5827;49.482;7.716;2023-04-29T04:33:21;98619.13;;;11.30;100.00
11542;BME280;5827;49.482;7.716;2023-04-29T04:35:23;98613.97;;;11.24;100.00
11542;BME280;5827;49.482;7.716;2023-04-29T04:37:24;98624.06;;;11.16;100.00
11542;BME280;5827;49.482;7.716;2023-04-29T04:39:27;98621.97;;;11.18;100.00
11542;BME280;5827;49.482;7.716;2023-04-29T04:41:29;98624.44;;;11.25;100.00
11542;BME280;5827;49.482;7.716;2023-04-29T04:43:31;98625.56;;;11.29;100.00
11542;BME280;5827;49.482;7.716;2023-04-29T04:45:32;98633.28;;;11.48;100.00
11542;BME280;5827;49.482;7.716;2023-04-29T04:47:34;98639.59;;;11.63;100.00
11542;BME280;5827;49.482;7.716;2023-04-29T04:49:36;98643.16;;;11.69;100.00
11542;BME280;5827;49.482;7.716;2023-04-29T04:51:37;98634.09;;;11.75;100.00
11542;BME280;5827;49.482;7.716;2023-04-29T04:53:39;98645.59;;;11.70;100.00
11542;BME280;5827;49.482;7.716;2023-04-29T04:55:42;98641.66;;;11.78;100.00
11542;BME280;5827;49.482;7.716;2023-04-29T04:57:43;98650.50;;;11.79;100.00
11542;BME280;5827;49.482;7.716;2023-04-29T04:59:45;98643.59;;;11.83;100.00
11542;BME280;5827;49.482;7.716;2023-04-29T05:01:46;98645.69;;;11.81;100.00
11542;BME280;5827;49.482;7.716;2023-04-29T05:03:48;98651.94;;;11.86;100.00
11542;BME280;5827;49.482;7.716;2023-04-29T05:05:52;98655.44;;;11.87;100.00
11542;BME280;5827;49.482;7.716;2023-04-29T05:07:53;98654.16;;;11.94;100.00
11542;BME280;5827;49.482;7.716;2023-04-29T05:09:55;98658.53;;;12.01;100.00
11542;BME280;5827;49.482;7.716;2023-04-29T05:11:58;98658.38;;;12.17;100.00
11542;BME280;5827;49.482;7.716;2023-04-29T05:13:59;98662.69;;;12.18;100.00
11542;BME280;5827;49.482;7.716;2023-04-29T05:16:01;98665.84;;;12.42;100.00
11542;BME280;5827;49.482;7.716;2023-04-29T05:18:03;98668.19;;;12.34;100.00
11542;BME280;5827;49.482;7.716;2023-04-29T05:20:06;98668.56;;;12.48;100.00
11542;BME280;5827;49.482;7.716;2023-04-29T05:22:08;98678.00;;;12.55;100.00
11542;BME280;5827;49.482;7.716;2023-04-29T05:24:09;98675.94;;;12.67;100.00
11542;BME280;5827;49.482;7.716;2023-04-29T05:26:11;98677.28;;;12.65;100.00
11542;BME280;5827;49.482;7.716;2023-04-29T05:28:13;98676.28;;;12.76;100.00
11542;BME280;5827;49.482;7.716;2023-04-29T05:30:15;98685.63;;;12.68;100.00
11542;BME280;5827;49.482;7.716;2023-04-29T05:32:17;98680.03;;;12.75;100.00
11542;BME280;5827;49.482;7.716;2023-04-29T05:34:19;98680.88;;;12.81;100.00
11542;BME280;5827;49.482;7.716;2023-04-29T05:36:20;98682.31;;;12.98;100.00
11542;BME280;5827;49.482;7.716;2023-04-29T05:38:21;98674.31;;;13.14;100.00
11542;BME280;5827;49.482;7.716;2023-04-29T05:40:28;98677.91;;;13.25;100.00
11542;BME280;5827;49.482;7.716;2023-04-29T05:42:29;98686.28;;;13.33;100.00
11542;BME280;5827;49.482;7.716;2023-04-29T05:44:33;98684.91;;;13.26;100.00
11542;BME280;5827;49.482;7.716;2023-04-29T05:46:34;98682.22;;;13.26;100.00
11542;BME280;5827;49.482;7.716;2023-04-29T05:48:36;98686.47;;;13.21;100.00
11542;BME280;5827;49.482;7.716;2023-04-29T05:50:38;98689.16;;;13.21;100.00
11542;BME280;5827;49.482;7.716;2023-04-29T05:52:39;98688.91;;;13.23;100.00
11542;BME280;5827;49.482;7.716;2023-04-29T05:54:41;98693.28;;;13.34;100.00
11542;BME280;5827;49.482;7.716;2023-04-29T05:56:42;98697.31;;;13.32;100.00
11542;BME280;5827;49.482;7.716;2023-04-29T05:58:43;98699.03;;;13.68;100.00
11542;BME280;5827;49.482;7.716;2023-04-29T06:00:46;98698.59;;;14.12;100.00
11542;BME280;5827;49.482;7.716;2023-04-29T06:02:48;98711.56;;;14.56;100.00
11542;BME280;5827;49.482;7.716;2023-04-29T06:04:50;98704.56;;;14.60;100.00
11542;BME280;5827;49.482;7.716;2023-04-29T06:06:51;98709.41;;;14.68;100.00
11542;BME280;5827;49.482;7.716;2023-04-29T06:08:53;98712.38;;;14.67;100.00
11542;BME280;5827;49.482;7.716;2023-04-29T06:10:54;98719.13;;;14.39;100.00
11542;BME280;5827;49.482;7.716;2023-04-29T06:12:56;98718.31;;;14.64;100.00
11542;BME280;5827;49.482;7.716;2023-04-29T06:14:57;98718.56;;;14.83;100.00
11542;BME280;5827;49.482;7.716;2023-04-29T06:17:00;98726.66;;;14.78;100.00
11542;BME280;5827;49.482;7.716;2023-04-29T06:19:02;98724.81;;;14.58;100.00
11542;BME280;5827;49.482;7.716;2023-04-29T06:21:04;98723.13;;;14.21;100.00
11542;BME280;5827;49.482;7.716;2023-04-29T06:23:06;98723.94;;;14.27;100.00
11542;BME280;5827;49.482;7.716;2023-04-29T06:25:08;98723.94;;;14.21;100.00
11542;BME280;5827;49.482;7.716;2023-04-29T06:27:10;98724.47;;;14.29;100.00
11542;BME280;5827;49.482;7.716;2023-04-29T06:29:11;98724.47;;;14.08;100.00
11542;BME280;5827;49.482;7.716;2023-04-29T06:31:13;98731.44;;;13.94;100.00
11542;BME280;5827;49.482;7.716;2023-04-29T06:33:16;98719.28;;;13.86;100.00
11542;BME280;5827;49.482;7.716;2023-04-29T06:35:17;98729.28;;;14.01;100.00
11542;BME280;5827;49.482;7.716;2023-04-29T06:37:19;98730.66;;;14.24;100.00
11542;BME280;5827;49.482;7.716;2023-04-29T06:39:20;98733.91;;;14.26;100.00
11542;BME280;5827;49.482;7.716;2023-04-29T06:41:22;98735.00;;;14.40;100.00
11542;BME280;5827;49.482;7.716;2023-04-29T06:43:24;98735.84;;;14.71;100.00
11542;BME280;5827;49.482;7.716;2023-04-29T06:45:25;98741.50;;;14.65;100.00
11542;BME280;5827;49.482;7.716;2023-04-29T06:47:27;98747.16;;;14.84;100.00
11542;BME280;5827;49.482;7.716;2023-04-29T06:49:30;98748.25;;;14.57;100.00
11542;BME280;5827;49.482;7.716;2023-04-29T06:51:32;98753.63;;;14.78;100.00
11542;BME280;5827;49.482;7.716;2023-04-29T06:53:33;98753.03;;;15.16;100.00
11542;BME280;5827;49.482;7.716;2023-04-29T06:55:35;98758.47;;;15.01;98.40
11542;BME280;5827;49.482;7.716;2023-04-29T06:57:36;98752.28;;;14.85;98.81
11542;BME280;5827;49.482;7.716;2023-04-29T06:59:38;98765.50;;;14.87;99.21
11542;BME280;5827;49.482;7.716;2023-04-29T07:01:39;98766.84;;;14.59;97.85
11542;BME280;5827;49.482;7.716;2023-04-29T07:03:41;98767.94;;;14.68;99.46
11542;BME280;5827;49.482;7.716;2023-04-29T07:05:44;98770.34;;;14.74;98.09
11542;BME280;5827;49.482;7.716;2023-04-29T07:07:45;98770.09;;;14.71;98.38
11542;BME280;5827;49.482;7.716;2023-04-29T07:09:47;98767.66;;;14.49;98.80
11542;BME280;5827;49.482;7.716;2023-04-29T07:11:50;98770.31;;;14.44;100.00
11542;BME280;5827;49.482;7.716;2023-04-29T07:13:52;98771.97;;;14.65;98.86
11542;BME280;5827;49.482;7.716;2023-04-29T07:15:53;98780.88;;;14.71;99.37
11542;BME280;5827;49.482;7.716;2023-04-29T07:17:55;98782.16;;;14.43;99.13
11542;BME280;5827;49.482;7.716;2023-04-29T07:19:56;98791.41;;;14.57;99.53
11542;BME280;5827;49.482;7.716;2023-04-29T07:21:59;98791.13;;;14.54;100.00
11542;BME280;5827;49.482;7.716;2023-04-29T07:24:01;98784.38;;;14.51;99.15
11542;BME280;5827;49.482;7.716;2023-04-29T07:26:10;98787.34;;;14.49;100.00
11542;BME280;5827;49.482;7.716;2023-04-29T07:28:12;98796.19;;;14.45;99.74
11542;BME280;5827;49.482;7.716;2023-04-29T07:30:13;98794.31;;;14.35;100.00
11542;BME280;5827;49.482;7.716;2023-04-29T07:32:15;98798.13;;;14.60;100.00
11542;BME280;5827;49.482;7.716;2023-04-29T07:34:17;98798.41;;;14.63;99.42
11542;BME280;5827;49.482;7.716;2023-04-29T07:36:19;98807.25;;;14.43;99.21
11542;BME280;5827;49.482;7.716;2023-04-29T07:38:21;98804.56;;;14.43;100.00
11542;BME280;5827;49.482;7.716;2023-04-29T07:40:23;98810.50;;;14.45;99.66
11542;BME280;5827;49.482;7.716;2023-04-29T07:42:25;98810.75;;;14.44;99.57
11542;BME280;5827;49.482;7.716;2023-04-29T07:44:26;98804.53;;;14.38;100.00
11542;BME280;5827;49.482;7.716;2023-04-29T07:46:28;98816.66;;;14.26;100.00
11542;BME280;5827;49.482;7.716;2023-04-29T07:48:30;98813.78;;;14.58;100.00
11542;BME280;5827;49.482;7.716;2023-04-29T07:50:37;98823.22;;;14.81;98.46
11542;BME280;5827;49.482;7.716;2023-04-29T07:52:38;98839.66;;;14.79;94.21
11542;BME280;5827;49.482;7.716;2023-04-29T07:54:41;98843.19;;;15.00;92.25
11542;BME280;5827;49.482;7.716;2023-04-29T07:56:43;98852.38;;;15.04;88.40
11542;BME280;5827;49.482;7.716;2023-04-29T07:58:44;98856.13;;;15.23;87.43
11542;BME280;5827;49.482;7.716;2023-04-29T08:00:46;98859.91;;;15.07;86.08
11542;BME280;5827;49.482;7.716;2023-04-29T08:02:49;98871.78;;;14.91;84.42
11542;BME280;5827;49.482;7.716;2023-04-29T08:04:51;98870.69;;;14.87;83.76
11542;BME280;5827;49.482;7.716;2023-04-29T08:06:53;98871.66;;;14.30;87.18
11542;BME280;5827;49.482;7.716;2023-04-29T08:08:54;98872.03;;;14.69;87.40
11542;BME280;5827;49.482;7.716;2023-04-29T08:10:57;98872.53;;;14.56;87.32
11542;BME280;5827;49.482;7.716;2023-04-29T08:12:59;98877.59;;;14.42;87.08
11542;BME280;5827;49.482;7.716;2023-04-29T08:15:00;98866.78;;;14.27;87.33
11542;BME280;5827;49.482;7.716;2023-04-29T08:17:02;98879.22;;;14.43;86.38
11542;BME280;5827;49.482;7.716;2023-04-29T08:19:03;98871.34;;;14.21;87.08
11542;BME280;5827;49.482;7.716;2023-04-29T08:21:05;98881.59;;;14.29;87.31
11542;BME280;5827;49.482;7.716;2023-04-29T08:23:06;98873.28;;;14.31;86.90
11542;BME280;5827;49.482;7.716;2023-04-29T08:25:09;98874.38;;;14.40;87.78
11542;BME280;5827;49.482;7.716;2023-04-29T08:27:11;98882.28;;;14.67;87.29
11542;BME280;5827;49.482;7.716;2023-04-29T08:29:14;98882.47;;;14.45;86.78
11542;BME280;5827;49.482;7.716;2023-04-29T08:31:16;98869.50;;;14.32;87.63
11542;BME280;5827;49.482;7.716;2023-04-29T08:33:17;98885.50;;;14.54;85.52
11542;BME280;5827;49.482;7.716;2023-04-29T08:35:19;98888.88;;;14.34;87.75
11542;BME280;5827;49.482;7.716;2023-04-29T08:37:20;98884.09;;;14.46;88.57
11542;BME280;5827;49.482;7.716;2023-04-29T08:39:22;98889.03;;;14.69;88.76
11542;BME280;5827;49.482;7.716;2023-04-29T08:41:23;98893.31;;;14.70;89.44
11542;BME280;5827;49.482;7.716;2023-04-29T08:43:26;98894.28;;;14.29;89.63
11542;BME280;5827;49.482;7.716;2023-04-29T08:45:28;98893.88;;;14.57;90.35
11542;BME280;5827;49.482;7.716;2023-04-29T08:47:31;98901.41;;;14.55;88.86
11542;BME280;5827;49.482;7.716;2023-04-29T08:49:33;98899.44;;;14.40;88.13
11542;BME280;5827;49.482;7.716;2023-04-29T08:51:37;98901.91;;;14.52;87.80
11542;BME280;5827;49.482;7.716;2023-04-29T08:53:38;98901.06;;;14.41;88.10
11542;BME280;5827;49.482;7.716;2023-04-29T08:55:41;98907.31;;;14.52;88.91
11542;BME280;5827;49.482;7.716;2023-04-29T08:57:43;98907.34;;;14.62;88.57
11542;BME280;5827;49.482;7.716;2023-04-29T08:59:48;98908.28;;;14.20;89.25
11542;BME280;5827;49.482;7.716;2023-04-29T09:01:50;98914.69;;;14.14;90.35
11542;BME280;5827;49.482;7.716;2023-04-29T09:03:57;98919.66;;;14.43;89.88
11542;BME280;5827;49.482;7.716;2023-04-29T09:06:04;98919.38;;;14.34;87.89
11542;BME280;5827;49.482;7.716;2023-04-29T09:08:07;98916.94;;;14.33;90.16
11542;BME280;5827;49.482;7.716;2023-04-29T09:10:09;98926.13;;;14.42;88.22
11542;BME280;5827;49.482;7.716;2023-04-29T09:12:11;98928.38;;;14.65;88.48
11542;BME280;5827;49.482;7.716;2023-04-29T09:14:13;98920.53;;;14.48;89.88
11542;BME280;5827;49.482;7.716;2023-04-29T09:16:16;98929.56;;;14.27;90.75
11542;BME280;5827;49.482;7.716;2023-04-29T09:18:44;98930.63;;;14.21;90.88
11542;BME280;5827;49.482;7.716;2023-04-29T09:20:45;98937.91;;;14.20;86.75
11542;BME280;5827;49.482;7.716;2023-04-29T09:22:47;98935.03;;;13.85;90.13
11542;BME280;5827;49.482;7.716;2023-04-29T09:24:49;98939.50;;;14.11;88.72
11542;BME280;5827;49.482;7.716;2023-04-29T09:26:51;98940.97;;;13.92;89.83
11542;BME280;5827;49.482;7.716;2023-04-29T09:29:06;98938.38;;;14.02;88.42
11542;BME280;5827;49.482;7.716;2023-04-29T09:31:08;98951.25;;;13.95;86.27
11542;BME280;5827;49.482;7.716;2023-04-29T09:33:11;98950.50;;;13.62;86.72
11542;BME280;5827;49.482;7.716;2023-04-29T09:35:21;98946.59;;;13.85;85.99
11542;BME280;5827;49.482;7.716;2023-04-29T09:37:24;98957.19;;;13.60;86.63
11542;BME280;5827;49.482;7.716;2023-04-29T09:39:37;98968.59;;;13.72;86.98
11542;BME280;5827;49.482;7.716;2023-04-29T09:41:40;98958.25;;;13.96;86.40
11542;BME280;5827;49.482;7.716;2023-04-29T09:43:42;98959.31;;;13.95;85.75
11542;BME280;5827;49.482;7.716;2023-04-29T09:45:44;98958.22;;;13.91;86.10
11542;BME280;5827;49.482;7.716;2023-04-29T09:48:00;98955.56;;;13.96;85.97
11542;BME280;5827;49.482;7.716;2023-04-29T09:50:13;98950.34;;;13.79;86.46
11542;BME280;5827;49.482;7.716;2023-04-29T09:52:15;98951.72;;;13.87;86.05
11542;BME280;5827;49.482;7.716;2023-04-29T09:54:19;98961.25;;;13.99;88.33
11542;BME280;5827;49.482;7.716;2023-04-29T09:56:21;98953.75;;;14.07;85.31
11542;BME280;5827;49.482;7.716;2023-04-29T09:58:27;98969.69;;;14.18;84.12
11542;BME280;5827;49.482;7.716;2023-04-29T10:00:31;98965.16;;;14.29;85.27
11542;BME280;5827;49.482;7.716;2023-04-29T10:02:34;98976.34;;;14.48;84.21
11542;BME280;5827;49.482;7.716;2023-04-29T10:04:38;98966.19;;;14.18;84.45
11542;BME280;5827;49.482;7.716;2023-04-29T10:06:43;98961.72;;;13.91;85.56
11542;BME280;5827;49.482;7.716;2023-04-29T10:08:46;98968.94;;;14.28;84.30
11542;BME280;5827;49.482;7.716;2023-04-29T10:10:48;98975.72;;;14.36;83.39
11542;BME280;5827;49.482;7.716;2023-04-29T10:12:59;98965.34;;;14.70;83.57
11542;BME280;5827;49.482;7.716;2023-04-29T10:15:02;98966.41;;;14.59;84.41
11542;BME280;5827;49.482;7.716;2023-04-29T10:17:10;98968.34;;;14.79;84.40
11542;BME280;5827;49.482;7.716;2023-04-29T10:19:25;98972.34;;;14.66;82.45
11542;BME280;5827;49.482;7.716;2023-04-29T10:21:28;98968.03;;;14.70;82.45
11542;BME280;5827;49.482;7.716;2023-04-29T10:23:32;98976.38;;;14.63;80.21
11542;BME280;5827;49.482;7.716;2023-04-29T10:25:35;98971.59;;;14.81;81.29
11542;BME280;5827;49.482;7.716;2023-04-29T10:27:38;98963.75;;;14.74;82.64
11542;BME280;5827;49.482;7.716;2023-04-29T10:29:42;98969.16;;;14.79;82.56
11542;BME280;5827;49.482;7.716;2023-04-29T10:31:45;98972.72;;;15.15;79.41
11542;BME280;5827;49.482;7.716;2023-04-29T10:33:49;98973.75;;;14.84;79.48
11542;BME280;5827;49.482;7.716;2023-04-29T10:35:53;98971.88;;;14.89;80.35
11542;BME280;5827;49.482;7.716;2023-04-29T10:37:58;98955.31;;;14.50;81.80
11542;BME280;5827;49.482;7.716;2023-04-29T10:40:10;98971.00;;;14.63;81.86
11542;BME280;5827;49.482;7.716;2023-04-29T10:42:20;98967.00;;;14.76;79.38
11542;BME280;5827;49.482;7.716;2023-04-29T10:44:22;98971.34;;;14.97;79.51
11542;BME280;5827;49.482;7.716;2023-04-29T10:46:24;98975.13;;;15.02;77.50
11542;BME280;5827;49.482;7.716;2023-04-29T10:48:26;98974.63;;;14.37;79.47
11542;BME280;5827;49.482;7.716;2023-04-29T10:50:27;98974.78;;;14.67;78.01
11542;BME280;5827;49.482;7.716;2023-04-29T10:52:29;98974.09;;;15.18;76.93
11542;BME280;5827;49.482;7.716;2023-04-29T10:54:30;98984.84;;;14.97;77.63